Hagerstown Regional Richard A Henson Field
KHGR : now visible

Airfield :











YOU CAN JOIN US ON...

 
LOGIN :

Register | Disclaimer

   EN    FR    IT 

 









Legend :    VFR   Marginal VFR   IFR   Intensive IFR   Very Intensive IFR
Visi :
Ceiling :
>= 8 km
>= 3000ft
5 to 8 km
1000 to 3000 ft
1500m to 5 km
500 to 1000 ft
800 to 1500m
200 to 500 ft
< 800m
< 200 ft
Symbols :   Thunderstorms  Fog  Heavy snow  Heavy precipitations  Wind > 20 kt







- Airport Elevation : 703 ft
- IATA code : HGR


KHGR - Hagerstown Regional Richard A Henson Field

CURRENT METAR :
  • 181853Z 36009KT 320V020 10SM FEW038 31/24 A2991 RMK AO2 SLP129 T03110239

EXPIRED METARs :
  • 181753Z 33012KT 10SM BKN035 BKN044 BKN050 29/24 A2991 RMK AO2 SLP129 T02940244 10306 20244 58004
  • 181653Z 30010KT 10SM FEW025 SCT033 BKN044 29/26 A2992 RMK AO2 SLP133 T02940256
  • 181637Z VRB05KT 10SM FEW021 SCT033 BKN044 28/26 A2992 RMK AO2 T02830256
  • 181608Z 34007KT 10SM BKN024 BKN032 OVC065 28/25 A2992 RMK AO2 T02830250

TAF N/A
KZDC FIR / North America



MET'MAP, your aeronautical weather chart ! - Copyright ORBIFLY December 2007 - Disclaimer

ORBIFLY MET'MAP TEAM :

Programming & Development : Alexandra Zaïnal
Concept & Development : Baudouin d'Aumeries
Co-Development & Prog : Marc-Olivier Méhu
Technical & hardware support : Manuel Goepfert

Contact : metmap@orbifly.com




SOURCES & CREDITS :

   NOAA       Earth
Advisory